Řízení letového provozu České republiky
Letiste: LKPD Aktualizace: 12.11.2018 19:01:06  UTC
 METAR LKPD 12.11. 19:00 ...
METAR LKPD 121900Z 02002KT 9999 OVC023 11/09 Q1023 RMK BLACK=